Time;durP1;ratioP1;P1;durP2;ratioP2;P2;SDS_P1;SDS_P2;PMS_P1;PMS_P2;Temp;Humidity;BMP_temperature;BMP_pressure;BME280_temperature;BME280_humidity;BME280_pressure;Samples;Min_cycle;Max_cycle;Signal;HPM_P1;HPM_P2
2023/05/09 00:00:24;;;;;;;;;;;20.80;41.50;;;;;;5104892;27;19924;-53
2023/05/09 00:02:50;;;;;;;;;;;20.80;41.50;;;;;;5109264;27;19922;-53
2023/05/09 00:05:16;;;;;;;;;;;20.80;41.60;;;;;;5121218;27;19915;-53
2023/05/09 00:07:41;;;;;;;;;;;20.80;41.50;;;;;;5104636;28;19911;-54
2023/05/09 00:10:07;;;;;;;;;;;20.80;41.30;;;;;;5122377;28;19916;-54
2023/05/09 00:12:32;;;;;;;;;;;20.70;41.50;;;;;;5119866;28;19923;-53
2023/05/09 00:14:58;;;;;;;;;;;20.70;41.40;;;;;;5121403;28;20604;-54
2023/05/09 00:17:23;;;;;;;;;;;20.70;41.40;;;;;;5120694;28;20393;-54
2023/05/09 00:19:49;;;;;;;;;;;20.70;41.50;;;;;;5122465;28;20306;-53
2023/05/09 00:22:15;;;;;;;;;;;20.70;41.30;;;;;;5122177;28;20002;-54
2023/05/09 00:24:41;;;;;;;;;;;20.70;41.40;;;;;;5121878;28;20247;-53
2023/05/09 00:27:06;;;;;;;;;;;20.70;41.50;;;;;;5123802;27;19958;-54
2023/05/09 00:29:32;;;;;;;;;;;20.70;41.30;;;;;;5109948;28;20284;-54
2023/05/09 00:31:57;;;;;;;;;;;20.60;41.40;;;;;;5130330;27;19920;-53
2023/05/09 00:34:23;;;;;;;;;;;20.60;41.40;;;;;;5128536;27;19982;-53
2023/05/09 00:36:49;;;;;;;;;;;20.60;41.30;;;;;;5110689;27;19911;-53
2023/05/09 00:39:14;;;;;;;;;;;20.60;41.20;;;;;;5126298;27;20004;-53
2023/05/09 00:41:40;;;;;;;;;;;20.60;41.10;;;;;;5125350;27;20397;-54
2023/05/09 00:44:05;;;;;;;;;;;20.60;41.00;;;;;;5106195;27;20295;-53
2023/05/09 00:46:31;;;;;;;;;;;20.60;41.20;;;;;;5126270;27;19918;-53
2023/05/09 00:48:56;;;;;;;;;;;20.60;41.30;;;;;;5124528;27;20332;-54
2023/05/09 00:51:22;;;;;;;;;;;20.60;41.30;;;;;;5125251;27;20293;-53
2023/05/09 00:53:47;;;;;;;;;;;20.50;41.10;;;;;;5128845;27;19934;-53
2023/05/09 00:56:13;;;;;;;;;;;20.50;41.20;;;;;;5128137;27;19953;-53
2023/05/09 00:58:38;;;;;;;;;;;20.50;41.00;;;;;;5126057;27;19923;-53
2023/05/09 01:01:04;;;;;;;;;;;20.50;41.20;;;;;;5126699;27;19916;-53
2023/05/09 01:03:30;;;;;;;;;;;20.50;41.20;;;;;;5127617;27;19922;-54
2023/05/09 01:06:19;;;;;;;;;;;20.50;41.20;;;;;;5111206;27;20359;-53
2023/05/09 01:08:51;;;;;;;;;;;20.50;41.60;;;;;;5113828;27;19915;-53
2023/05/09 01:11:22;;;;;;;;;;;20.60;41.70;;;;;;5128507;27;20338;-53
2023/05/09 01:13:47;;;;;;;;;;;20.60;41.60;;;;;;5126086;27;19918;-53
2023/05/09 01:16:17;;;;;;;;;;;20.70;41.70;;;;;;5122959;27;20006;-53
2023/05/09 01:18:52;;;;;;;;;;;20.70;41.60;;;;;;5107996;27;19920;-53
2023/05/09 01:21:22;;;;;;;;;;;20.80;41.30;;;;;;5125880;27;20048;-53
2023/05/09 01:23:54;;;;;;;;;;;21.00;41.10;;;;;;5124990;27;19915;-54
2023/05/09 01:26:20;;;;;;;;;;;21.30;40.70;;;;;;5121706;27;20309;-54
2023/05/09 01:28:55;;;;;;;;;;;21.60;40.20;;;;;;5093899;27;19956;-54
2023/05/09 01:31:21;;;;;;;;;;;21.70;39.80;;;;;;5125493;27;19912;-54
2023/05/09 01:33:47;;;;;;;;;;;21.90;39.70;;;;;;5126045;27;20289;-54
2023/05/09 01:36:14;;;;;;;;;;;22.00;39.40;;;;;;5107784;27;19911;-54
2023/05/09 01:38:41;;;;;;;;;;;22.20;39.00;;;;;;5089810;27;19911;-53
2023/05/09 01:41:06;;;;;;;;;;;22.60;38.50;;;;;;5127316;27;19919;-54
2023/05/09 01:43:32;;;;;;;;;;;23.00;37.90;;;;;;5123683;27;20508;-54
2023/05/09 01:45:57;;;;;;;;;;;23.20;38.10;;;;;;5124489;27;19912;-54
2023/05/09 01:48:25;;;;;;;;;;;23.20;37.30;;;;;;5109111;27;19954;-54
2023/05/09 01:50:51;;;;;;;;;;;23.30;37.40;;;;;;5124018;27;20458;-54
2023/05/09 01:53:16;;;;;;;;;;;23.30;37.30;;;;;;5125671;27;20025;-54
2023/05/09 01:55:42;;;;;;;;;;;23.20;37.40;;;;;;5107160;27;20310;-54
2023/05/09 01:58:07;;;;;;;;;;;23.10;37.50;;;;;;5126656;27;20008;-54
2023/05/09 02:00:32;;;;;;;;;;;23.10;37.70;;;;;;5129516;27;20367;-53
2023/05/09 02:02:58;;;;;;;;;;;23.00;37.80;;;;;;5107656;27;19988;-54
2023/05/09 02:05:24;;;;;;;;;;;22.90;38.00;;;;;;5128144;27;19958;-54
2023/05/09 02:07:50;;;;;;;;;;;22.70;38.20;;;;;;5106913;27;19964;-54
2023/05/09 02:10:15;;;;;;;;;;;22.50;38.50;;;;;;5106970;27;19911;-54
2023/05/09 02:12:41;;;;;;;;;;;22.40;38.70;;;;;;5122135;27;19957;-54
2023/05/09 02:15:07;;;;;;;;;;;22.30;38.90;;;;;;5128231;27;19965;-54
2023/05/09 02:17:33;;;;;;;;;;;22.20;39.20;;;;;;5122530;27;20045;-54
2023/05/09 02:19:58;;;;;;;;;;;22.10;39.40;;;;;;5125219;27;20018;-53
2023/05/09 02:22:24;;;;;;;;;;;22.00;39.50;;;;;;5120260;27;19923;-54
2023/05/09 02:24:49;;;;;;;;;;;21.90;39.70;;;;;;5103987;27;19920;-53
2023/05/09 02:27:15;;;;;;;;;;;21.80;40.00;;;;;;5121384;27;19915;-54
2023/05/09 02:29:42;;;;;;;;;;;21.70;40.10;;;;;;5103736;27;19912;-54
2023/05/09 02:32:34;;;;;;;;;;;21.70;40.20;;;;;;5122794;27;20327;-54
2023/05/09 02:34:59;;;;;;;;;;;21.60;40.30;;;;;;5120074;27;20412;-54
2023/05/09 02:37:25;;;;;;;;;;;21.50;40.30;;;;;;5124055;27;19912;-54
2023/05/09 02:39:50;;;;;;;;;;;21.50;40.40;;;;;;5123469;27;19919;-54
2023/05/09 02:42:24;;;;;;;;;;;21.50;40.50;;;;;;5121176;27;19961;-54
2023/05/09 02:44:52;;;;;;;;;;;21.50;40.50;;;;;;5122013;27;19920;-54
2023/05/09 02:47:18;;;;;;;;;;;21.50;40.50;;;;;;5121159;27;19977;-54
2023/05/09 02:49:43;;;;;;;;;;;21.50;40.20;;;;;;5121561;27;20472;-54
2023/05/09 02:52:10;;;;;;;;;;;21.60;40.20;;;;;;5103744;27;19926;-54
2023/05/09 02:54:35;;;;;;;;;;;21.60;39.90;;;;;;5121523;27;20326;-54
2023/05/09 02:57:01;;;;;;;;;;;21.70;39.80;;;;;;5104557;27;19915;-54
2023/05/09 02:59:26;;;;;;;;;;;21.80;39.50;;;;;;5122051;27;19915;-54
2023/05/09 03:01:52;;;;;;;;;;;21.90;39.50;;;;;;5122599;27;21002;-54
2023/05/09 03:04:18;;;;;;;;;;;22.00;39.30;;;;;;5125211;27;19958;-54
2023/05/09 03:06:44;;;;;;;;;;;22.10;39.30;;;;;;5105670;27;19919;-54
2023/05/09 03:09:09;;;;;;;;;;;22.10;39.00;;;;;;5120879;27;20388;-54
2023/05/09 03:11:35;;;;;;;;;;;22.10;39.20;;;;;;5121234;27;20381;-54
2023/05/09 03:14:01;;;;;;;;;;;22.10;39.30;;;;;;5121725;27;19912;-54
2023/05/09 03:16:26;;;;;;;;;;;22.00;39.10;;;;;;5120541;27;20024;-54
2023/05/09 03:18:52;;;;;;;;;;;22.00;39.40;;;;;;5122307;27;20007;-54
2023/05/09 03:21:17;;;;;;;;;;;21.90;39.60;;;;;;5121805;27;20093;-54
2023/05/09 03:23:43;;;;;;;;;;;21.80;39.60;;;;;;5121606;27;19974;-54
2023/05/09 03:26:08;;;;;;;;;;;21.80;39.70;;;;;;5120956;27;19916;-54
2023/05/09 03:28:34;;;;;;;;;;;21.70;39.80;;;;;;5103629;27;19919;-54
2023/05/09 03:30:59;;;;;;;;;;;21.60;39.90;;;;;;5122102;27;19937;-54
2023/05/09 03:33:25;;;;;;;;;;;21.60;40.10;;;;;;5123927;27;19930;-54
2023/05/09 03:35:50;;;;;;;;;;;21.50;40.20;;;;;;5125879;27;19919;-54
2023/05/09 03:38:16;;;;;;;;;;;21.50;40.30;;;;;;5125072;27;19912;-54
2023/05/09 03:40:41;;;;;;;;;;;21.50;40.30;;;;;;5124149;27;20450;-54
2023/05/09 03:43:07;;;;;;;;;;;21.40;40.30;;;;;;5124761;27;20279;-54
2023/05/09 03:45:34;;;;;;;;;;;21.50;40.40;;;;;;5127649;27;20275;-54
2023/05/09 03:48:00;;;;;;;;;;;21.50;40.30;;;;;;5124555;27;19918;-54
2023/05/09 03:50:25;;;;;;;;;;;21.50;40.30;;;;;;5121704;27;19919;-54
2023/05/09 03:52:51;;;;;;;;;;;21.50;40.90;;;;;;5109481;27;19911;-54
2023/05/09 03:55:17;;;;;;;;;;;21.50;40.10;;;;;;5126712;27;20290;-54
2023/05/09 03:57:42;;;;;;;;;;;21.60;40.10;;;;;;5104967;28;19915;-54
2023/05/09 04:00:09;;;;;;;;;;;21.60;40.00;;;;;;5123270;27;19957;-54
2023/05/09 04:02:34;;;;;;;;;;;21.70;39.80;;;;;;5120229;27;20398;-54
2023/05/09 04:05:00;;;;;;;;;;;21.70;39.80;;;;;;5107044;28;19957;-54
2023/05/09 04:07:27;;;;;;;;;;;21.80;39.80;;;;;;5124938;28;19927;-54
2023/05/09 04:09:54;;;;;;;;;;;21.80;39.70;;;;;;5120790;28;20434;-54
2023/05/09 04:12:20;;;;;;;;;;;21.90;39.60;;;;;;5119494;28;20401;-54
2023/05/09 04:14:45;;;;;;;;;;;21.80;39.50;;;;;;5102350;28;19916;-54
2023/05/09 04:17:11;;;;;;;;;;;21.90;39.60;;;;;;5105431;28;20002;-54
2023/05/09 04:19:36;;;;;;;;;;;21.90;39.60;;;;;;5087309;28;19911;-54
2023/05/09 04:22:02;;;;;;;;;;;21.80;39.70;;;;;;5125579;28;19979;-53
2023/05/09 04:24:27;;;;;;;;;;;21.70;39.60;;;;;;5120736;28;19957;-54
2023/05/09 04:26:53;;;;;;;;;;;21.70;39.80;;;;;;5119364;28;19919;-54
2023/05/09 04:29:18;;;;;;;;;;;21.70;39.90;;;;;;5124707;28;19968;-54
2023/05/09 04:31:43;;;;;;;;;;;21.60;39.90;;;;;;5103148;28;19916;-54
2023/05/09 04:34:09;;;;;;;;;;;21.50;40.00;;;;;;5119106;28;20017;-54
2023/05/09 04:36:35;;;;;;;;;;;21.50;40.10;;;;;;5122253;28;19919;-54
2023/05/09 04:39:00;;;;;;;;;;;21.50;40.10;;;;;;5122816;28;19921;-54
2023/05/09 04:41:26;;;;;;;;;;;21.50;40.30;;;;;;5084497;28;19932;-54
2023/05/09 04:43:52;;;;;;;;;;;21.50;40.10;;;;;;5080503;28;19934;-54
2023/05/09 04:46:17;;;;;;;;;;;21.40;40.10;;;;;;5078185;28;21471;-54
2023/05/09 04:48:42;;;;;;;;;;;21.40;40.10;;;;;;5080666;28;19930;-54
2023/05/09 04:51:08;;;;;;;;;;;21.40;40.10;;;;;;5079078;28;20010;-53
2023/05/09 04:53:33;;;;;;;;;;;21.50;40.10;;;;;;5081798;28;19959;-53
2023/05/09 04:55:59;;;;;;;;;;;21.50;40.00;;;;;;5079926;28;19981;-53
2023/05/09 04:58:25;;;;;;;;;;;21.60;39.90;;;;;;5078638;28;20068;-54
2023/05/09 05:00:51;;;;;;;;;;;21.60;39.70;;;;;;5078743;28;19957;-53
2023/05/09 05:03:17;;;;;;;;;;;21.70;39.70;;;;;;5079543;28;19947;-54
2023/05/09 05:05:42;;;;;;;;;;;21.80;39.60;;;;;;5080022;28;19974;-53
2023/05/09 05:08:07;;;;;;;;;;;21.80;39.60;;;;;;5080527;28;19920;-54
2023/05/09 05:10:33;;;;;;;;;;;21.90;39.40;;;;;;5079596;28;19916;-54
2023/05/09 05:12:58;;;;;;;;;;;21.90;39.30;;;;;;5080113;28;19916;-54
2023/05/09 05:15:25;;;;;;;;;;;22.00;39.30;;;;;;5082498;28;19920;-54
2023/05/09 05:17:51;;;;;;;;;;;22.10;39.10;;;;;;5083903;28;19912;-54
2023/05/09 05:20:16;;;;;;;;;;;22.20;39.10;;;;;;5085885;28;20015;-54
2023/05/09 05:22:42;;;;;;;;;;;22.20;39.10;;;;;;5083092;28;20625;-54
2023/05/09 05:25:07;;;;;;;;;;;22.20;38.90;;;;;;5082962;28;19958;-54
2023/05/09 05:27:33;;;;;;;;;;;22.30;38.90;;;;;;5083129;28;19927;-54
2023/05/09 05:29:58;;;;;;;;;;;22.30;38.70;;;;;;5089549;28;19916;-54
2023/05/09 05:32:24;;;;;;;;;;;22.30;38.80;;;;;;5084991;28;19916;-54
2023/05/09 05:34:49;;;;;;;;;;;22.30;38.80;;;;;;5081179;28;19966;-54
2023/05/09 05:37:15;;;;;;;;;;;22.30;38.90;;;;;;5084266;28;20325;-54
2023/05/09 05:39:40;;;;;;;;;;;22.20;38.90;;;;;;5090406;27;20291;-54
2023/05/09 05:42:05;;;;;;;;;;;22.20;39.00;;;;;;5105043;27;19912;-53
2023/05/09 05:44:31;;;;;;;;;;;22.10;39.00;;;;;;5106687;27;19951;-54
2023/05/09 05:46:56;;;;;;;;;;;22.10;39.10;;;;;;5123288;27;20387;-54
2023/05/09 05:49:23;;;;;;;;;;;22.00;39.20;;;;;;5104322;27;20379;-54
2023/05/09 05:51:49;;;;;;;;;;;22.00;39.30;;;;;;5104777;27;19911;-54
2023/05/09 05:54:15;;;;;;;;;;;22.00;39.30;;;;;;5124734;27;20501;-53
2023/05/09 05:56:40;;;;;;;;;;;21.90;39.40;;;;;;5110213;27;19929;-54
2023/05/09 05:59:05;;;;;;;;;;;21.90;39.50;;;;;;5105497;27;20426;-54
2023/05/09 06:01:31;;;;;;;;;;;21.90;39.40;;;;;;5121558;27;19931;-54
2023/05/09 06:03:56;;;;;;;;;;;21.80;39.50;;;;;;5128183;27;19919;-54
2023/05/09 06:06:22;;;;;;;;;;;21.80;39.50;;;;;;5106846;27;19915;-54
2023/05/09 06:08:50;;;;;;;;;;;21.80;39.50;;;;;;5125705;27;19994;-54
2023/05/09 06:11:16;;;;;;;;;;;21.80;39.50;;;;;;5104216;27;19931;-54
2023/05/09 06:13:41;;;;;;;;;;;21.80;39.40;;;;;;5122916;27;19911;-54
2023/05/09 06:16:07;;;;;;;;;;;21.90;39.50;;;;;;5121698;27;19919;-54
2023/05/09 06:18:34;;;;;;;;;;;21.90;39.50;;;;;;5121832;27;19919;-54
2023/05/09 06:20:59;;;;;;;;;;;21.90;39.30;;;;;;5122300;27;20359;-54
2023/05/09 06:23:25;;;;;;;;;;;22.00;39.30;;;;;;5128211;27;19922;-54
2023/05/09 06:25:50;;;;;;;;;;;22.00;39.20;;;;;;5126130;27;20383;-54
2023/05/09 06:28:16;;;;;;;;;;;22.10;39.30;;;;;;5107261;27;19925;-54
2023/05/09 06:30:41;;;;;;;;;;;22.10;39.10;;;;;;5110135;27;20381;-54
2023/05/09 06:33:07;;;;;;;;;;;22.10;39.10;;;;;;5123564;27;19911;-54
2023/05/09 06:35:32;;;;;;;;;;;22.20;39.00;;;;;;5125856;27;20387;-54
2023/05/09 06:37:58;;;;;;;;;;;22.20;38.90;;;;;;5124813;27;19915;-54
2023/05/09 06:40:23;;;;;;;;;;;22.20;39.00;;;;;;5129114;27;19924;-55
2023/05/09 06:42:49;;;;;;;;;;;22.20;39.10;;;;;;5100321;27;19915;-53
2023/05/09 06:45:14;;;;;;;;;;;22.20;39.40;;;;;;5119923;27;19955;-54
2023/05/09 06:47:40;;;;;;;;;;;22.10;39.30;;;;;;5121034;27;20405;-53
2023/05/09 06:50:06;;;;;;;;;;;22.00;40.30;;;;;;5125534;27;19911;-54
2023/05/09 06:52:31;;;;;;;;;;;22.00;39.70;;;;;;5123928;27;19912;-55
2023/05/09 06:54:56;;;;;;;;;;;21.90;40.00;;;;;;5125174;27;19911;-54
2023/05/09 06:57:22;;;;;;;;;;;21.90;40.30;;;;;;5110093;27;19915;-55
2023/05/09 06:59:47;;;;;;;;;;;21.90;40.40;;;;;;5105813;27;20349;-54
2023/05/09 07:02:13;;;;;;;;;;;21.90;40.40;;;;;;5132605;27;19916;-55
2023/05/09 07:04:38;;;;;;;;;;;21.80;40.40;;;;;;5132710;27;19915;-54
2023/05/09 07:07:04;;;;;;;;;;;21.80;40.40;;;;;;5128758;27;19915;-53
2023/05/09 07:09:30;;;;;;;;;;;21.80;40.50;;;;;;5128493;27;20002;-55
2023/05/09 07:11:55;;;;;;;;;;;21.70;40.40;;;;;;5123965;27;20003;-54
2023/05/09 07:14:21;;;;;;;;;;;21.80;40.60;;;;;;5130253;27;19933;-55
2023/05/09 07:16:46;;;;;;;;;;;21.80;40.70;;;;;;5131968;27;19998;-53
2023/05/09 07:19:12;;;;;;;;;;;21.80;40.80;;;;;;5131013;27;19912;-53
2023/05/09 07:21:37;;;;;;;;;;;21.90;40.80;;;;;;5127314;27;19916;-53
2023/05/09 07:24:03;;;;;;;;;;;21.90;40.60;;;;;;5124554;27;19920;-53
2023/05/09 07:26:29;;;;;;;;;;;21.90;40.60;;;;;;5111989;27;20030;-54
2023/05/09 07:28:54;;;;;;;;;;;22.00;40.50;;;;;;5111350;27;20360;-54
2023/05/09 07:31:19;;;;;;;;;;;22.10;40.30;;;;;;5128865;27;19920;-54
2023/05/09 07:33:45;;;;;;;;;;;22.10;40.20;;;;;;5132385;27;20359;-54
2023/05/09 07:36:15;;;;;;;;;;;22.20;40.10;;;;;;5099617;28;20371;-54
2023/05/09 07:38:41;;;;;;;;;;;22.20;40.10;;;;;;5129179;27;19912;-55
2023/05/09 07:41:06;;;;;;;;;;;22.20;40.10;;;;;;5104900;27;19976;-55
2023/05/09 07:43:32;;;;;;;;;;;22.20;40.10;;;;;;5126992;27;19922;-55
2023/05/09 07:45:57;;;;;;;;;;;22.20;40.10;;;;;;5131489;27;19915;-55
2023/05/09 07:48:23;;;;;;;;;;;22.20;40.30;;;;;;5113915;27;19912;-54
2023/05/09 07:50:48;;;;;;;;;;;22.10;40.20;;;;;;5131354;27;19915;-54
2023/05/09 07:53:14;;;;;;;;;;;22.10;40.40;;;;;;5132393;27;19956;-54
2023/05/09 07:55:39;;;;;;;;;;;22.00;40.50;;;;;;5129738;27;19956;-54
2023/05/09 07:58:05;;;;;;;;;;;22.00;40.50;;;;;;5129364;27;19919;-54
2023/05/09 08:00:30;;;;;;;;;;;22.00;41.40;;;;;;5127862;27;19920;-54
2023/05/09 08:02:56;;;;;;;;;;;21.90;40.60;;;;;;5129297;27;19922;-54
2023/05/09 08:05:21;;;;;;;;;;;21.90;40.60;;;;;;5123418;27;19920;-53
2023/05/09 08:07:46;;;;;;;;;;;21.90;41.30;;;;;;5126594;27;19908;-54
2023/05/09 08:10:12;;;;;;;;;;;21.90;40.80;;;;;;5118064;27;19919;-53
2023/05/09 08:12:37;;;;;;;;;;;21.90;40.60;;;;;;5121366;27;20331;-54
2023/05/09 08:15:03;;;;;;;;;;;21.90;40.70;;;;;;5128155;28;20002;-53
2023/05/09 08:17:29;;;;;;;;;;;21.90;41.00;;;;;;5125358;28;20516;-54
2023/05/09 08:19:54;;;;;;;;;;;21.90;40.70;;;;;;5129952;28;19912;-53
2023/05/09 08:22:20;;;;;;;;;;;21.90;40.90;;;;;;5127335;28;19908;-54
2023/05/09 08:24:45;;;;;;;;;;;22.00;41.10;;;;;;5123714;28;20259;-54
2023/05/09 08:27:12;;;;;;;;;;;22.00;41.10;;;;;;5113259;28;19936;-55
2023/05/09 08:29:38;;;;;;;;;;;22.10;41.00;;;;;;5122802;28;20687;-54
2023/05/09 08:32:04;;;;;;;;;;;22.10;40.90;;;;;;5122256;28;20032;-53
2023/05/09 08:34:33;;;;;;;;;;;22.20;40.80;;;;;;5120838;28;20068;-54
2023/05/09 08:37:01;;;;;;;;;;;22.20;40.80;;;;;;5132351;28;19907;-54
2023/05/09 08:39:27;;;;;;;;;;;22.30;40.90;;;;;;5127508;28;19917;-53
2023/05/09 08:41:53;;;;;;;;;;;22.30;40.70;;;;;;5129030;28;19920;-54
2023/05/09 08:44:20;;;;;;;;;;;22.30;40.80;;;;;;5106263;28;19967;-55
2023/05/09 08:46:45;;;;;;;;;;;22.30;40.90;;;;;;5125142;28;20326;-54
2023/05/09 08:49:11;;;;;;;;;;;22.20;40.90;;;;;;5134040;27;19907;-55
2023/05/09 08:51:36;;;;;;;;;;;22.20;40.90;;;;;;5131068;27;19912;-56
2023/05/09 08:54:02;;;;;;;;;;;22.20;40.90;;;;;;5098046;27;19911;-54
2023/05/09 08:56:28;;;;;;;;;;;22.20;40.90;;;;;;5134766;27;19907;-54
2023/05/09 08:58:54;;;;;;;;;;;22.10;41.00;;;;;;5131391;27;19942;-54
2023/05/09 09:01:19;;;;;;;;;;;22.10;41.10;;;;;;5125526;27;20367;-52
2023/05/09 09:03:48;;;;;;;;;;;22.10;41.10;;;;;;5135448;27;19915;-53
2023/05/09 09:06:14;;;;;;;;;;;22.10;41.10;;;;;;5129578;27;19919;-53
2023/05/09 09:08:40;;;;;;;;;;;22.10;41.30;;;;;;5133511;27;19911;-52
2023/05/09 09:11:06;;;;;;;;;;;22.10;41.20;;;;;;5134121;27;19922;-53
2023/05/09 09:13:31;;;;;;;;;;;22.10;41.20;;;;;;5122786;27;19912;-54
2023/05/09 09:15:57;;;;;;;;;;;22.10;41.10;;;;;;5128620;27;20006;-54
2023/05/09 09:18:23;;;;;;;;;;;22.10;41.10;;;;;;5104772;27;19964;-53
2023/05/09 09:20:50;;;;;;;;;;;22.10;40.80;;;;;;5105321;28;20389;-54
2023/05/09 09:23:17;;;;;;;;;;;22.10;40.80;;;;;;5099805;28;20002;-54
2023/05/09 09:25:44;;;;;;;;;;;22.10;40.80;;;;;;5106232;27;19954;-55
2023/05/09 09:28:09;;;;;;;;;;;22.20;40.90;;;;;;5107515;27;20015;-54
2023/05/09 09:30:35;;;;;;;;;;;22.20;40.80;;;;;;5120508;27;19959;-54
2023/05/09 09:33:00;;;;;;;;;;;22.30;40.90;;;;;;5111798;27;19949;-54
2023/05/09 09:35:26;;;;;;;;;;;22.40;40.80;;;;;;5130025;27;19915;-54
2023/05/09 09:37:55;;;;;;;;;;;22.40;40.60;;;;;;5134104;27;20014;-57
2023/05/09 09:40:20;;;;;;;;;;;22.50;40.50;;;;;;5131825;27;19920;-54
2023/05/09 09:42:46;;;;;;;;;;;22.50;40.30;;;;;;5113535;27;19914;-54
2023/05/09 09:45:12;;;;;;;;;;;22.50;40.30;;;;;;5122689;27;20387;-54
2023/05/09 09:47:38;;;;;;;;;;;22.50;40.30;;;;;;5127139;27;19915;-54
2023/05/09 09:50:13;;;;;;;;;;;22.50;40.30;;;;;;5131452;27;19919;-54
2023/05/09 09:52:52;;;;;;;;;;;22.50;40.30;;;;;;5122156;27;19916;-54
2023/05/09 09:55:17;;;;;;;;;;;22.50;40.30;;;;;;5127721;27;20298;-55
2023/05/09 09:57:44;;;;;;;;;;;22.50;40.40;;;;;;5131911;27;19964;-54
2023/05/09 10:00:10;;;;;;;;;;;22.50;40.40;;;;;;5122976;27;20010;-55
2023/05/09 10:02:45;;;;;;;;;;;22.40;40.50;;;;;;5121927;27;19918;-53
2023/05/09 10:05:11;;;;;;;;;;;22.40;40.20;;;;;;5126248;27;20389;-53
2023/05/09 10:07:36;;;;;;;;;;;22.40;40.20;;;;;;5118610;27;19915;-54
2023/05/09 10:10:04;;;;;;;;;;;22.40;40.30;;;;;;5132584;27;19918;-54
2023/05/09 10:12:35;;;;;;;;;;;22.40;40.30;;;;;;5129791;27;19972;-53
2023/05/09 10:15:01;;;;;;;;;;;22.40;40.10;;;;;;5107928;27;20334;-54
2023/05/09 10:17:26;;;;;;;;;;;22.40;40.10;;;;;;5122817;27;20037;-55
2023/05/09 10:19:52;;;;;;;;;;;22.40;40.10;;;;;;5131032;27;20006;-54
2023/05/09 10:22:18;;;;;;;;;;;22.40;40.00;;;;;;5106238;27;19915;-54
2023/05/09 10:24:47;;;;;;;;;;;22.40;39.90;;;;;;5131807;27;20441;-54
2023/05/09 10:27:12;;;;;;;;;;;22.50;39.80;;;;;;5128959;27;19911;-53
2023/05/09 10:29:44;;;;;;;;;;;22.50;39.80;;;;;;5121257;27;19963;-54
2023/05/09 10:32:22;;;;;;;;;;;22.60;39.70;;;;;;5089572;27;19959;-54
2023/05/09 10:34:50;;;;;;;;;;;22.60;39.60;;;;;;5110349;27;19957;-55
2023/05/09 10:37:15;;;;;;;;;;;22.70;39.60;;;;;;5129879;27;19922;-53
2023/05/09 10:39:41;;;;;;;;;;;22.70;39.50;;;;;;5106392;27;19912;-54
2023/05/09 10:42:06;;;;;;;;;;;22.70;39.60;;;;;;5106426;27;19919;-55
2023/05/09 10:44:32;;;;;;;;;;;22.80;39.60;;;;;;5127447;27;19941;-54
2023/05/09 10:46:57;;;;;;;;;;;22.80;39.40;;;;;;5123021;27;19915;-55
2023/05/09 10:49:22;;;;;;;;;;;22.80;39.50;;;;;;5109163;27;19916;-55
2023/05/09 10:51:48;;;;;;;;;;;22.80;39.70;;;;;;5123448;27;19912;-55
2023/05/09 10:54:15;;;;;;;;;;;22.80;39.60;;;;;;5109949;27;19954;-55
2023/05/09 10:56:40;;;;;;;;;;;22.80;39.60;;;;;;5130090;27;19911;-55
2023/05/09 10:59:06;;;;;;;;;;;22.80;39.60;;;;;;5108114;27;20275;-54
2023/05/09 11:01:35;;;;;;;;;;;22.80;39.60;;;;;;5103180;27;20367;-55
2023/05/09 11:04:07;;;;;;;;;;;22.80;39.50;;;;;;5131399;27;20021;-54
2023/05/09 11:06:47;;;;;;;;;;;22.80;39.60;;;;;;5130440;27;19914;-54
2023/05/09 11:09:26;;;;;;;;;;;22.80;39.70;;;;;;5130706;27;19920;-54
2023/05/09 11:11:59;;;;;;;;;;;22.80;39.80;;;;;;5133088;27;19994;-54
2023/05/09 11:14:52;;;;;;;;;;;22.80;39.50;;;;;;5130896;27;19915;-55
2023/05/09 11:17:21;;;;;;;;;;;22.80;39.40;;;;;;5127802;27;20014;-54
2023/05/09 11:19:46;;;;;;;;;;;22.80;40.20;;;;;;5132966;27;19933;-55
2023/05/09 11:22:12;;;;;;;;;;;22.80;39.50;;;;;;5127011;27;19911;-55
2023/05/09 11:24:38;;;;;;;;;;;22.80;39.60;;;;;;5128892;27;19977;-57
2023/05/09 11:27:13;;;;;;;;;;;22.80;39.60;;;;;;5131418;27;19958;-56
2023/05/09 11:29:43;;;;;;;;;;;22.80;39.60;;;;;;5115819;27;19947;-54
2023/05/09 11:32:08;;;;;;;;;;;22.80;39.60;;;;;;5108998;27;19918;-55
2023/05/09 11:34:33;;;;;;;;;;;22.80;39.60;;;;;;5112522;27;20367;-54
2023/05/09 11:37:08;;;;;;;;;;;22.80;39.60;;;;;;5131124;27;20426;-54
2023/05/09 11:39:34;;;;;;;;;;;22.90;39.60;;;;;;5130042;27;19926;-55
2023/05/09 11:42:00;;;;;;;;;;;22.80;39.40;;;;;;5126484;27;20010;-54
2023/05/09 11:44:26;;;;;;;;;;;22.80;39.40;;;;;;5104198;27;20267;-54
2023/05/09 11:46:52;;;;;;;;;;;22.90;39.50;;;;;;5130749;27;19955;-54
2023/05/09 11:49:19;;;;;;;;;;;22.90;39.50;;;;;;5108764;27;19958;-55
2023/05/09 11:51:44;;;;;;;;;;;22.90;39.50;;;;;;5130796;27;19923;-55
2023/05/09 11:54:11;;;;;;;;;;;22.90;39.30;;;;;;5120930;27;20257;-55
2023/05/09 11:56:37;;;;;;;;;;;22.90;39.20;;;;;;5105548;27;19907;-55
2023/05/09 11:59:02;;;;;;;;;;;23.00;39.10;;;;;;5130222;27;19918;-56
2023/05/09 12:01:28;;;;;;;;;;;23.00;39.30;;;;;;5123793;27;20362;-55
2023/05/09 12:03:54;;;;;;;;;;;23.00;39.30;;;;;;5118032;27;19924;-55
2023/05/09 12:06:19;;;;;;;;;;;23.00;39.10;;;;;;5131566;27;19979;-56
2023/05/09 12:08:45;;;;;;;;;;;23.00;39.00;;;;;;5099923;28;19915;-55
2023/05/09 12:11:11;;;;;;;;;;;23.00;38.90;;;;;;5128848;27;19911;-55
2023/05/09 12:13:46;;;;;;;;;;;23.10;39.00;;;;;;5114463;27;19912;-55
2023/05/09 12:16:12;;;;;;;;;;;23.00;38.90;;;;;;5120343;27;19979;-55
2023/05/09 12:18:37;;;;;;;;;;;23.00;39.00;;;;;;5119055;28;19998;-55
2023/05/09 12:21:03;;;;;;;;;;;23.00;39.10;;;;;;5126813;28;19922;-55
2023/05/09 12:23:33;;;;;;;;;;;23.00;39.10;;;;;;5109427;27;20313;-55
2023/05/09 12:25:58;;;;;;;;;;;23.00;39.00;;;;;;5130865;27;20463;-55
2023/05/09 12:28:24;;;;;;;;;;;23.00;39.00;;;;;;5131058;27;20009;-55
2023/05/09 12:30:50;;;;;;;;;;;23.00;39.00;;;;;;5111924;27;19911;-54
2023/05/09 12:33:15;;;;;;;;;;;23.00;39.10;;;;;;5127240;27;19992;-55
2023/05/09 12:35:47;;;;;;;;;;;23.00;39.00;;;;;;5128793;27;19912;-55
2023/05/09 12:38:14;;;;;;;;;;;23.00;38.90;;;;;;5117987;27;19991;-55
2023/05/09 12:40:40;;;;;;;;;;;23.00;39.00;;;;;;5123740;27;20372;-56
2023/05/09 12:43:06;;;;;;;;;;;23.10;39.00;;;;;;5117576;27;19923;-54
2023/05/09 12:45:32;;;;;;;;;;;23.10;38.90;;;;;;5120101;27;20344;-55
2023/05/09 12:47:58;;;;;;;;;;;23.10;38.70;;;;;;5120112;27;19979;-54
2023/05/09 12:50:30;;;;;;;;;;;23.10;38.60;;;;;;5133377;27;19912;-54
2023/05/09 12:52:55;;;;;;;;;;;23.20;38.80;;;;;;5119516;27;19923;-55
2023/05/09 12:55:20;;;;;;;;;;;23.20;38.80;;;;;;5108937;27;19911;-55
2023/05/09 12:57:56;;;;;;;;;;;23.20;38.60;;;;;;5126682;27;19935;-55
2023/05/09 13:00:22;;;;;;;;;;;23.20;38.40;;;;;;5128662;27;20302;-55
2023/05/09 13:02:49;;;;;;;;;;;23.20;38.60;;;;;;5123355;27;19912;-55
2023/05/09 13:05:18;;;;;;;;;;;23.20;38.80;;;;;;5121497;27;19922;-56
2023/05/09 13:07:44;;;;;;;;;;;23.20;38.90;;;;;;5129124;27;19919;-55
2023/05/09 13:10:11;;;;;;;;;;;23.20;38.80;;;;;;5127324;27;20282;-55
2023/05/09 13:12:37;;;;;;;;;;;23.20;38.70;;;;;;5132937;27;19915;-55
2023/05/09 13:15:03;;;;;;;;;;;23.30;38.70;;;;;;5133162;27;19934;-55
2023/05/09 13:17:28;;;;;;;;;;;23.30;38.60;;;;;;5134875;27;19914;-55
2023/05/09 13:19:54;;;;;;;;;;;23.40;38.80;;;;;;5133069;27;19927;-55
2023/05/09 13:22:19;;;;;;;;;;;23.40;38.80;;;;;;5127218;27;19915;-54
2023/05/09 13:24:45;;;;;;;;;;;23.30;38.70;;;;;;5129417;27;19923;-55
2023/05/09 13:27:12;;;;;;;;;;;23.30;38.90;;;;;;5116372;27;19912;-55
2023/05/09 13:29:37;;;;;;;;;;;23.30;38.90;;;;;;5124674;27;19911;-55
2023/05/09 13:32:03;;;;;;;;;;;23.30;38.80;;;;;;5127724;27;20026;-54
2023/05/09 13:34:28;;;;;;;;;;;23.30;38.60;;;;;;5116298;27;19951;-54
2023/05/09 13:36:54;;;;;;;;;;;23.30;38.60;;;;;;5125471;27;19926;-53
2023/05/09 13:39:19;;;;;;;;;;;23.30;38.40;;;;;;5123841;27;20276;-54
2023/05/09 13:41:45;;;;;;;;;;;23.30;38.60;;;;;;5128680;27;19923;-54
2023/05/09 13:44:10;;;;;;;;;;;23.30;38.70;;;;;;5132125;27;19916;-54
2023/05/09 13:46:36;;;;;;;;;;;23.30;38.80;;;;;;5125483;27;20331;-54
2023/05/09 13:49:01;;;;;;;;;;;23.30;38.90;;;;;;5133684;27;20371;-54
2023/05/09 13:51:27;;;;;;;;;;;23.30;39.00;;;;;;5105065;27;20333;-55
2023/05/09 13:53:53;;;;;;;;;;;23.30;39.10;;;;;;5132776;27;20363;-54
2023/05/09 13:56:18;;;;;;;;;;;23.30;39.20;;;;;;5132504;27;20006;-54
2023/05/09 13:58:44;;;;;;;;;;;23.20;38.90;;;;;;5124841;27;20037;-54
2023/05/09 14:01:10;;;;;;;;;;;23.20;39.00;;;;;;5130231;27;19915;-54
2023/05/09 14:03:35;;;;;;;;;;;23.20;39.00;;;;;;5131065;27;20032;-54
2023/05/09 14:06:01;;;;;;;;;;;23.20;39.00;;;;;;5109335;27;19923;-55
2023/05/09 14:08:26;;;;;;;;;;;23.20;39.00;;;;;;5122175;27;19966;-54
2023/05/09 14:10:52;;;;;;;;;;;23.20;39.00;;;;;;5129674;27;19915;-54